createdAt,value
2017-10-24T00:00:01.184Z,12.50
2017-10-24T00:02:27.536Z,12.50
2017-10-24T00:04:53.896Z,12.60
2017-10-24T00:07:20.244Z,12.50
2017-10-24T00:09:46.564Z,12.50
2017-10-24T00:12:12.913Z,12.60
2017-10-24T00:14:39.246Z,12.60
2017-10-24T00:17:06.301Z,12.60
2017-10-24T00:19:32.639Z,12.60
2017-10-24T00:21:58.987Z,12.70
2017-10-24T00:24:25.338Z,12.70
2017-10-24T00:26:51.704Z,12.70
2017-10-24T00:29:18.035Z,12.60
2017-10-24T00:31:44.377Z,12.60
2017-10-24T00:34:10.704Z,12.60
2017-10-24T00:36:37.056Z,12.60
2017-10-24T00:39:03.440Z,12.60
2017-10-24T00:41:30.572Z,12.50
2017-10-24T00:43:56.908Z,12.50
2017-10-24T00:46:23.273Z,12.50
2017-10-24T00:48:49.624Z,12.50
2017-10-24T00:51:15.981Z,12.50
2017-10-24T00:53:43.109Z,12.50
2017-10-24T00:56:09.676Z,12.50
2017-10-24T00:58:36.049Z,12.60
2017-10-24T01:01:02.488Z,12.50
2017-10-24T01:03:29.563Z,12.60
2017-10-24T01:05:56.696Z,12.50
2017-10-24T01:08:23.025Z,12.50
2017-10-24T01:10:49.382Z,12.50
2017-10-24T01:13:15.745Z,12.50
2017-10-24T01:15:42.836Z,12.50
2017-10-24T01:18:09.204Z,12.50
2017-10-24T01:20:35.577Z,12.50
2017-10-24T01:23:01.999Z,12.50
2017-10-24T01:25:28.356Z,12.40
2017-10-24T01:27:54.725Z,12.40
2017-10-24T01:30:21.821Z,12.40
2017-10-24T01:32:48.293Z,12.40
2017-10-24T01:35:14.676Z,12.40
2017-10-24T01:37:41.072Z,12.40
2017-10-24T01:40:08.229Z,12.30
2017-10-24T01:42:34.628Z,12.30
2017-10-24T01:45:01.748Z,12.30
2017-10-24T01:47:28.151Z,12.30
2017-10-24T01:49:54.535Z,12.30
2017-10-24T01:52:20.948Z,12.20
2017-10-24T01:54:47.333Z,12.10
2017-10-24T01:57:13.720Z,12.20
2017-10-24T01:59:40.071Z,12.10
2017-10-24T02:02:06.445Z,12.10
2017-10-24T02:04:32.792Z,12.10
2017-10-24T02:06:59.172Z,12.00
2017-10-24T02:09:25.540Z,12.10
2017-10-24T02:11:51.909Z,12.00
2017-10-24T02:14:18.279Z,12.10
2017-10-24T02:16:46.176Z,12.00
2017-10-24T02:19:13.304Z,12.00
2017-10-24T02:21:39.749Z,12.00
2017-10-24T02:24:06.097Z,12.00
2017-10-24T02:26:32.472Z,12.10
2017-10-24T02:28:59.574Z,12.00
2017-10-24T02:31:25.964Z,12.00
2017-10-24T02:33:52.334Z,12.10
2017-10-24T02:36:18.691Z,12.00
2017-10-24T02:38:45.089Z,12.00
2017-10-24T02:41:12.186Z,12.00
2017-10-24T02:43:38.549Z,12.00
2017-10-24T02:46:04.936Z,12.00
2017-10-24T02:48:31.348Z,12.00
2017-10-24T02:50:57.720Z,12.00
2017-10-24T02:53:24.094Z,12.10
2017-10-24T02:55:50.433Z,12.10
2017-10-24T02:58:17.508Z,12.00
2017-10-24T03:00:43.835Z,12.00
2017-10-24T03:03:10.210Z,12.10
2017-10-24T03:05:36.611Z,12.10
2017-10-24T03:08:03.717Z,12.00
2017-10-24T03:10:30.033Z,12.00
2017-10-24T03:12:56.439Z,12.00
2017-10-24T03:15:23.596Z,12.00
2017-10-24T03:17:49.989Z,12.00
2017-10-24T03:20:16.374Z,12.00
2017-10-24T03:22:42.760Z,12.00
2017-10-24T03:25:09.840Z,12.00
2017-10-24T03:27:36.402Z,12.00
2017-10-24T03:30:02.780Z,12.10
2017-10-24T03:32:29.158Z,12.10
2017-10-24T03:34:55.521Z,12.00
2017-10-24T03:37:21.873Z,12.10
2017-10-24T03:39:48.195Z,12.10
2017-10-24T03:42:14.560Z,12.10
2017-10-24T03:44:40.897Z,12.00
2017-10-24T03:47:07.236Z,12.00
2017-10-24T03:49:33.596Z,12.10
2017-10-24T03:52:00.685Z,12.00
2017-10-24T03:54:27.110Z,12.00
2017-10-24T03:56:53.488Z,12.00
2017-10-24T03:59:20.580Z,12.00
2017-10-24T04:01:46.916Z,12.00
2017-10-24T04:04:13.261Z,12.10
2017-10-24T04:06:39.612Z,12.10
2017-10-24T04:09:06.024Z,12.10
2017-10-24T04:11:32.440Z,12.10
2017-10-24T04:13:58.808Z,12.00
2017-10-24T04:16:25.149Z,12.00
2017-10-24T04:18:51.525Z,12.10
2017-10-24T04:21:18.637Z,12.00
2017-10-24T04:23:45.040Z,12.00
2017-10-24T04:26:11.428Z,12.10
2017-10-24T04:28:37.823Z,12.10
2017-10-24T04:31:04.200Z,12.20
2017-10-24T04:33:30.600Z,12.10
2017-10-24T04:35:56.940Z,12.10
2017-10-24T04:38:23.296Z,12.10
2017-10-24T04:40:49.636Z,12.10
2017-10-24T04:43:16.008Z,12.10
2017-10-24T04:45:42.345Z,12.10
2017-10-24T04:48:08.728Z,12.10
2017-10-24T04:50:35.852Z,12.10
2017-10-24T04:53:02.256Z,12.00
2017-10-24T04:55:29.315Z,12.10
2017-10-24T04:57:55.688Z,12.10
2017-10-24T05:00:22.064Z,12.10
2017-10-24T05:02:48.424Z,12.10
2017-10-24T05:05:15.508Z,12.10
2017-10-24T05:07:41.902Z,12.10
2017-10-24T05:10:08.328Z,12.20
2017-10-24T05:12:35.482Z,12.20
2017-10-24T05:15:01.933Z,12.20
2017-10-24T05:17:29.280Z,12.20
2017-10-24T05:19:55.683Z,12.10
2017-10-24T05:22:22.008Z,12.10
2017-10-24T05:24:48.365Z,12.10
2017-10-24T05:27:15.525Z,12.10
2017-10-24T05:29:41.960Z,12.10
2017-10-24T05:32:08.290Z,12.10
2017-10-24T05:34:34.651Z,12.20
2017-10-24T05:37:00.999Z,12.20
2017-10-24T05:39:28.330Z,12.10
2017-10-24T05:41:54.860Z,12.10
2017-10-24T05:44:21.560Z,12.20
2017-10-24T05:46:48.356Z,12.20
2017-10-24T05:49:15.082Z,12.20
2017-10-24T05:51:41.957Z,12.20
2017-10-24T05:54:09.218Z,12.20
2017-10-24T05:56:35.652Z,12.20
2017-10-24T05:59:02.312Z,12.30
2017-10-24T06:01:30.265Z,12.30
2017-10-24T06:03:56.709Z,12.30
2017-10-24T06:06:27.738Z,12.30
2017-10-24T06:08:54.152Z,12.30
2017-10-24T06:11:21.351Z,12.30
2017-10-24T06:13:47.895Z,12.30
2017-10-24T06:16:14.294Z,12.30
2017-10-24T06:18:40.740Z,12.40
2017-10-24T06:21:07.132Z,12.40
2017-10-24T06:23:34.331Z,12.40
2017-10-24T06:26:01.505Z,12.40
2017-10-24T06:28:27.952Z,12.40
2017-10-24T06:30:54.716Z,12.40
2017-10-24T06:33:21.208Z,12.40
2017-10-24T06:35:47.552Z,12.30
2017-10-24T06:38:14.038Z,12.50
2017-10-24T06:40:40.530Z,11.80
2017-10-24T06:43:06.902Z,12.50
2017-10-24T06:45:33.334Z,12.40
2017-10-24T06:47:59.708Z,12.50
2017-10-24T06:50:26.152Z,12.60
2017-10-24T06:52:53.724Z,12.60
2017-10-24T06:55:20.157Z,12.60
2017-10-24T06:57:46.556Z,12.70
2017-10-24T07:00:13.185Z,12.70
2017-10-24T07:02:39.632Z,12.70
2017-10-24T07:05:06.117Z,12.80
2017-10-24T07:07:32.567Z,12.70
2017-10-24T07:10:00.399Z,12.70
2017-10-24T07:12:26.826Z,12.80
2017-10-24T07:14:54.353Z,12.80
2017-10-24T07:17:22.011Z,12.90
2017-10-24T07:19:53.033Z,12.90
2017-10-24T07:22:20.590Z,12.90
2017-10-24T07:24:47.009Z,13.00
2017-10-24T07:27:13.441Z,13.00
2017-10-24T07:29:40.276Z,13.10
2017-10-24T07:32:08.308Z,13.20
2017-10-24T07:34:35.482Z,13.20
2017-10-24T07:37:01.891Z,13.20
2017-10-24T07:39:28.349Z,13.30
2017-10-24T07:41:54.792Z,13.20
2017-10-24T07:44:21.205Z,13.30
2017-10-24T07:46:47.612Z,13.60
2017-10-24T07:49:14.762Z,13.70
2017-10-24T07:51:41.134Z,13.70
2017-10-24T07:54:07.568Z,13.70
2017-10-24T07:56:33.999Z,13.80
2017-10-24T07:59:00.408Z,13.90
2017-10-24T08:01:26.816Z,13.90
2017-10-24T08:03:53.264Z,13.90
2017-10-24T08:06:19.859Z,13.80
2017-10-24T08:08:46.255Z,13.80
2017-10-24T08:11:13.836Z,13.80
2017-10-24T08:13:41.067Z,13.80
2017-10-24T08:16:08.047Z,13.80
2017-10-24T08:18:34.635Z,13.90
2017-10-24T08:21:01.974Z,13.90
2017-10-24T08:23:28.348Z,13.90
2017-10-24T08:25:54.776Z,13.90
2017-10-24T08:28:21.174Z,13.90
2017-10-24T08:30:47.620Z,13.40
2017-10-24T08:33:14.744Z,14.00
2017-10-24T08:35:41.912Z,14.00
2017-10-24T08:38:08.399Z,14.00
2017-10-24T08:40:34.817Z,14.10
2017-10-24T08:43:01.207Z,14.10
2017-10-24T08:45:28.358Z,14.20
2017-10-24T08:47:55.527Z,14.20
2017-10-24T08:50:21.937Z,14.20
2017-10-24T08:52:48.314Z,14.30
2017-10-24T08:55:14.797Z,14.30
2017-10-24T08:57:41.212Z,14.40
2017-10-24T09:00:07.740Z,14.40
2017-10-24T09:02:34.924Z,14.60
2017-10-24T09:05:01.833Z,14.60
2017-10-24T09:07:30.082Z,14.80
2017-10-24T09:09:56.495Z,14.70
2017-10-24T09:12:23.666Z,14.90
2017-10-24T09:14:50.064Z,14.80
2017-10-24T09:17:38.341Z,14.90
2017-10-24T09:20:07.001Z,15.00
2017-10-24T09:22:34.168Z,15.10
2017-10-24T09:25:00.580Z,15.10
2017-10-24T09:27:27.745Z,15.10
2017-10-24T09:29:54.148Z,15.20
2017-10-24T09:32:20.611Z,15.20
2017-10-24T09:34:47.840Z,15.20
2017-10-24T09:37:14.328Z,15.20
2017-10-24T09:39:40.816Z,15.20
2017-10-24T09:42:07.232Z,15.20
2017-10-24T09:44:34.390Z,15.10
2017-10-24T09:47:00.790Z,15.20
2017-10-24T09:49:28.007Z,15.20
2017-10-24T09:51:55.277Z,15.30
2017-10-24T09:54:21.671Z,15.30
2017-10-24T09:56:48.180Z,15.50
2017-10-24T10:02:09.315Z,15.60
2017-10-24T10:04:35.747Z,15.70
2017-10-24T10:07:10.868Z,15.60
2017-10-24T10:09:37.457Z,15.40
2017-10-24T10:12:08.790Z,15.30
2017-10-24T10:14:35.200Z,15.60
2017-10-24T10:17:01.651Z,15.70
2017-10-24T10:19:28.821Z,15.70
2017-10-24T10:21:55.504Z,15.60
2017-10-24T10:24:37.798Z,15.80
2017-10-24T10:27:04.213Z,15.80
2017-10-24T10:29:30.661Z,15.90
2017-10-24T10:31:57.170Z,16.00
2017-10-24T10:34:24.412Z,16.10
2017-10-24T10:36:50.857Z,16.10
2017-10-24T10:39:17.477Z,16.20
2017-10-24T10:41:43.851Z,16.10
2017-10-24T10:44:10.313Z,16.20
2017-10-24T10:46:36.835Z,16.20
2017-10-24T10:49:03.300Z,16.20
2017-10-24T10:51:29.748Z,16.20
2017-10-24T10:53:56.187Z,16.20
2017-10-24T10:56:22.632Z,16.10
2017-10-24T10:58:49.846Z,16.10
2017-10-24T11:01:16.275Z,16.20
2017-10-24T11:03:42.772Z,16.20
2017-10-24T11:06:09.231Z,16.20
2017-10-24T11:08:35.859Z,16.30
2017-10-24T11:11:02.345Z,16.40
2017-10-24T11:13:29.501Z,16.40
2017-10-24T11:15:55.923Z,16.40
2017-10-24T11:18:24.468Z,16.50
2017-10-24T11:20:50.885Z,16.60
2017-10-24T11:23:17.458Z,16.70
2017-10-24T11:25:43.876Z,16.80
2017-10-24T11:28:10.248Z,16.80
2017-10-24T11:30:36.628Z,17.00
2017-10-24T11:33:03.777Z,17.10
2017-10-24T11:35:30.280Z,17.10
2017-10-24T11:37:56.669Z,17.20
2017-10-24T11:40:23.280Z,17.10
2017-10-24T11:42:49.698Z,17.20
2017-10-24T11:45:16.920Z,16.70
2017-10-24T11:47:43.460Z,16.70
2017-10-24T11:50:10.561Z,16.50
2017-10-24T11:52:36.970Z,16.40
2017-10-24T11:55:03.458Z,16.40
2017-10-24T11:57:29.903Z,16.40
2017-10-24T11:59:56.461Z,16.40
2017-10-24T12:02:22.922Z,16.40
2017-10-24T12:04:49.481Z,16.50
2017-10-24T12:07:15.928Z,16.60
2017-10-24T12:09:42.306Z,16.60
2017-10-24T12:12:08.913Z,16.60
2017-10-24T12:14:35.417Z,16.60
2017-10-24T12:17:02.648Z,16.60
2017-10-24T12:19:29.065Z,16.60
2017-10-24T12:21:56.245Z,16.60
2017-10-24T12:24:23.440Z,16.60
2017-10-24T12:26:49.969Z,16.60
2017-10-24T12:29:16.477Z,16.70
2017-10-24T12:31:42.902Z,16.60
2017-10-24T12:34:09.385Z,16.60
2017-10-24T12:36:36.032Z,16.60
2017-10-24T12:39:02.517Z,16.50
2017-10-24T12:44:34.254Z,16.50
2017-10-24T12:47:02.520Z,16.50
2017-10-24T12:49:34.944Z,16.50
2017-10-24T12:52:02.263Z,16.60
2017-10-24T12:54:28.709Z,16.50
2017-10-24T12:56:55.137Z,16.50
2017-10-24T12:59:22.318Z,16.50
2017-10-24T13:01:49.480Z,16.50
2017-10-24T13:04:15.939Z,16.50
2017-10-24T13:06:42.441Z,16.60
2017-10-24T13:09:08.887Z,16.60
2017-10-24T13:11:35.385Z,16.60
2017-10-24T13:14:01.884Z,16.50
2017-10-24T13:16:28.376Z,16.40
2017-10-24T13:18:55.801Z,16.50
2017-10-24T13:21:22.239Z,16.50
2017-10-24T13:23:48.719Z,16.60
2017-10-24T13:26:15.927Z,16.50
2017-10-24T13:28:42.519Z,16.50
2017-10-24T13:31:08.960Z,16.80
2017-10-24T13:33:36.305Z,16.50
2017-10-24T13:36:03.586Z,16.50
2017-10-24T13:38:30.038Z,16.50
2017-10-24T13:40:56.496Z,16.90
2017-10-24T13:43:22.995Z,16.50
2017-10-24T13:45:49.481Z,16.50
2017-10-24T13:48:15.895Z,16.40
2017-10-24T13:50:42.300Z,16.40
2017-10-24T13:53:08.712Z,16.30
2017-10-24T13:55:35.173Z,16.30
2017-10-24T13:58:01.561Z,16.40
2017-10-24T14:00:29.648Z,16.40
2017-10-24T14:02:56.156Z,16.20
2017-10-24T14:05:29.354Z,16.10
2017-10-24T14:11:00.632Z,16.00
2017-10-24T14:13:27.118Z,15.90
2017-10-24T14:15:53.420Z,15.90
2017-10-24T14:18:27.158Z,15.90
2017-10-24T14:20:53.525Z,15.90
2017-10-24T14:23:19.954Z,15.20
2017-10-24T14:25:47.959Z,15.80
2017-10-24T14:28:14.420Z,15.80
2017-10-24T14:30:40.847Z,16.10
2017-10-24T14:33:08.086Z,15.90
2017-10-24T14:35:34.544Z,15.90
2017-10-24T14:38:00.952Z,15.90
2017-10-24T14:40:27.432Z,15.90
2017-10-24T14:42:53.860Z,15.80
2017-10-24T14:45:20.300Z,15.80
2017-10-24T14:47:46.756Z,15.80
2017-10-24T14:50:13.222Z,15.80
2017-10-24T14:52:39.619Z,15.70
2017-10-24T14:55:06.112Z,15.70
2017-10-24T14:57:32.556Z,15.60
2017-10-24T14:59:58.990Z,15.60
2017-10-24T15:02:25.456Z,15.60
2017-10-24T15:04:51.910Z,15.50
2017-10-24T15:07:18.325Z,15.60
2017-10-24T15:09:44.764Z,15.70
2017-10-24T15:12:11.360Z,15.60
2017-10-24T15:14:37.772Z,15.60
2017-10-24T15:17:04.183Z,15.50
2017-10-24T15:19:30.604Z,15.50
2017-10-24T15:21:57.101Z,15.30
2017-10-24T15:24:24.447Z,15.30
2017-10-24T15:26:51.214Z,15.40
2017-10-24T15:29:19.477Z,15.30
2017-10-24T15:31:47.115Z,15.30
2017-10-24T15:34:14.285Z,15.30
2017-10-24T15:36:40.740Z,15.30
2017-10-24T15:39:07.198Z,15.30
2017-10-24T15:41:33.595Z,15.30
2017-10-24T15:44:00.119Z,15.20
2017-10-24T15:46:29.208Z,15.20
2017-10-24T15:48:55.620Z,15.20
2017-10-24T15:51:22.152Z,15.20
2017-10-24T15:53:50.283Z,15.20
2017-10-24T15:56:17.491Z,15.20
2017-10-24T15:58:44.464Z,15.30
2017-10-24T16:01:11.052Z,15.30
2017-10-24T16:03:37.675Z,15.30
2017-10-24T16:06:04.169Z,15.30
2017-10-24T16:08:30.674Z,15.20
2017-10-24T16:10:57.813Z,15.40
2017-10-24T16:13:24.270Z,15.40
2017-10-24T16:15:50.681Z,15.40
2017-10-24T16:18:17.061Z,15.40
2017-10-24T16:20:43.472Z,15.40
2017-10-24T16:23:09.973Z,15.40
2017-10-24T16:25:36.441Z,15.40
2017-10-24T16:28:03.174Z,15.40
2017-10-24T16:30:30.419Z,15.50
2017-10-24T16:32:57.037Z,15.50
2017-10-24T16:35:23.470Z,15.50
2017-10-24T16:37:50.757Z,15.50
2017-10-24T16:40:17.309Z,15.40
2017-10-24T16:42:43.784Z,15.50
2017-10-24T16:45:11.730Z,15.60
2017-10-24T16:47:38.169Z,15.60
2017-10-24T16:50:04.570Z,15.60
2017-10-24T16:52:30.965Z,15.60
2017-10-24T16:54:57.548Z,15.60
2017-10-24T16:57:23.937Z,15.60
2017-10-24T16:59:50.300Z,15.60
2017-10-24T17:02:16.696Z,15.60
2017-10-24T17:04:43.065Z,15.60
2017-10-24T17:07:09.467Z,15.60
2017-10-24T17:09:35.825Z,15.70
2017-10-24T17:12:02.221Z,15.60
2017-10-24T17:14:29.350Z,15.60
2017-10-24T17:16:55.752Z,15.50
2017-10-24T17:19:22.104Z,15.60
2017-10-24T17:21:48.502Z,15.60
2017-10-24T17:24:14.873Z,15.60
2017-10-24T17:26:41.245Z,15.60
2017-10-24T17:29:07.621Z,15.60
2017-10-24T17:31:34.753Z,15.60
2017-10-24T17:34:01.164Z,15.60
2017-10-24T17:36:27.576Z,15.60
2017-10-24T17:38:54.660Z,15.60
2017-10-24T17:41:21.760Z,15.60
2017-10-24T17:43:48.123Z,15.60
2017-10-24T17:46:14.488Z,15.70
2017-10-24T17:48:40.915Z,15.70
2017-10-24T17:51:07.328Z,15.70
2017-10-24T17:53:34.405Z,15.60
2017-10-24T17:56:00.889Z,15.60
2017-10-24T17:58:27.232Z,15.60
2017-10-24T18:00:53.577Z,15.60
2017-10-24T18:03:20.000Z,15.60
2017-10-24T18:05:46.392Z,15.60
2017-10-24T18:08:12.764Z,15.60
2017-10-24T18:10:39.080Z,15.60
2017-10-24T18:13:06.180Z,15.60
2017-10-24T18:15:32.532Z,15.60
2017-10-24T18:17:58.876Z,15.60
2017-10-24T18:20:25.220Z,15.60
2017-10-24T18:22:51.579Z,15.60
2017-10-24T18:25:17.932Z,15.70
2017-10-24T18:27:44.281Z,15.70
2017-10-24T18:30:10.641Z,15.60
2017-10-24T18:32:37.743Z,15.60
2017-10-24T18:35:04.092Z,15.60
2017-10-24T18:37:30.412Z,15.70
2017-10-24T18:39:56.855Z,15.60
2017-10-24T18:42:23.184Z,15.60
2017-10-24T18:44:49.529Z,15.50
2017-10-24T18:47:15.916Z,15.50
2017-10-24T18:49:42.289Z,15.50
2017-10-24T18:52:08.656Z,15.50
2017-10-24T18:54:35.069Z,15.60
2017-10-24T18:57:01.546Z,15.50
2017-10-24T18:59:27.912Z,15.50
2017-10-24T19:01:54.340Z,15.50
2017-10-24T19:04:20.757Z,15.50
2017-10-24T19:06:47.147Z,15.40
2017-10-24T19:09:13.488Z,15.50
2017-10-24T19:11:39.848Z,15.50
2017-10-24T19:14:06.287Z,15.50
2017-10-24T19:16:32.621Z,15.50
2017-10-24T19:18:59.076Z,15.50
2017-10-24T19:21:25.453Z,15.50
2017-10-24T19:23:51.808Z,15.50
2017-10-24T19:26:18.892Z,15.50
2017-10-24T19:28:45.249Z,15.50
2017-10-24T19:31:11.645Z,15.50
2017-10-24T19:33:38.768Z,15.50
2017-10-24T19:36:05.132Z,15.50
2017-10-24T19:38:31.480Z,15.40
2017-10-24T19:40:57.873Z,15.30
2017-10-24T19:43:24.240Z,15.40
2017-10-24T19:45:50.617Z,15.30
2017-10-24T19:48:17.692Z,15.40
2017-10-24T19:50:44.113Z,15.40
2017-10-24T19:53:11.940Z,15.40
2017-10-24T19:55:38.345Z,15.40
2017-10-24T19:58:05.449Z,15.40
2017-10-24T20:00:31.845Z,15.40
2017-10-24T20:02:58.180Z,15.50
2017-10-24T20:05:26.037Z,15.40
2017-10-24T20:07:52.401Z,15.50
2017-10-24T20:10:19.517Z,15.50
2017-10-24T20:12:45.885Z,15.50
2017-10-24T20:15:12.256Z,15.50
2017-10-24T20:17:39.363Z,15.40
2017-10-24T20:20:05.713Z,15.40
2017-10-24T20:22:32.108Z,15.40
2017-10-24T20:24:59.200Z,15.40
2017-10-24T20:27:25.579Z,15.30
2017-10-24T20:29:52.016Z,15.40
2017-10-24T20:32:18.404Z,15.20
2017-10-24T20:34:45.492Z,15.50
2017-10-24T20:37:11.889Z,15.50
2017-10-24T20:39:38.295Z,15.90
2017-10-24T20:42:04.645Z,15.60
2017-10-24T20:44:31.008Z,15.60
2017-10-24T20:46:57.345Z,15.50
2017-10-24T20:49:23.724Z,15.50
2017-10-24T20:51:50.149Z,15.50
2017-10-24T20:54:17.505Z,15.40
2017-10-24T20:56:43.901Z,15.40
2017-10-24T20:59:10.992Z,15.30
2017-10-24T21:01:37.440Z,15.30
2017-10-24T21:04:03.928Z,15.30
2017-10-24T21:06:30.252Z,15.30
2017-10-24T21:08:56.620Z,15.30
2017-10-24T21:11:23.750Z,15.30
2017-10-24T21:13:50.893Z,15.30
2017-10-24T21:16:17.233Z,15.30
2017-10-24T21:18:43.584Z,15.20
2017-10-24T21:21:09.982Z,15.20
2017-10-24T21:23:36.328Z,15.20
2017-10-24T21:26:02.757Z,15.20
2017-10-24T21:28:29.123Z,15.20
2017-10-24T21:30:56.199Z,15.20
2017-10-24T21:33:22.532Z,15.20
2017-10-24T21:35:48.885Z,15.20
2017-10-24T21:38:15.281Z,15.20
2017-10-24T21:40:42.385Z,15.20
2017-10-24T21:43:08.712Z,15.20
2017-10-24T21:45:35.818Z,15.10
2017-10-24T21:48:02.157Z,15.10
2017-10-24T21:50:28.505Z,15.20
2017-10-24T21:52:54.855Z,15.30
2017-10-24T21:55:21.205Z,15.40
2017-10-24T21:57:47.557Z,15.30
2017-10-24T22:00:13.972Z,15.30
2017-10-24T22:02:40.332Z,15.30
2017-10-24T22:05:06.648Z,15.30
2017-10-24T22:07:32.999Z,15.30
2017-10-24T22:09:59.352Z,15.30
2017-10-24T22:12:26.473Z,15.30
2017-10-24T22:14:52.828Z,15.20
2017-10-24T22:17:19.232Z,15.20
2017-10-24T22:19:45.612Z,15.20
2017-10-24T22:22:11.976Z,15.20
2017-10-24T22:24:38.304Z,15.20
2017-10-24T22:27:04.681Z,15.20
2017-10-24T22:29:31.040Z,15.20
2017-10-24T22:31:57.420Z,15.20
2017-10-24T22:34:23.760Z,15.20
2017-10-24T22:36:50.097Z,15.20
2017-10-24T22:39:16.546Z,15.20
2017-10-24T22:41:43.604Z,15.10
2017-10-24T22:44:10.692Z,15.20
2017-10-24T22:46:37.021Z,15.10
2017-10-24T22:49:03.516Z,15.20
2017-10-24T22:51:29.917Z,15.20
2017-10-24T22:53:56.306Z,15.20
2017-10-24T22:56:22.738Z,15.30
2017-10-24T22:58:50.052Z,15.30
2017-10-24T23:01:17.133Z,15.40
2017-10-24T23:03:43.498Z,15.40
2017-10-24T23:06:10.645Z,15.50
2017-10-24T23:08:36.976Z,15.40
2017-10-24T23:11:03.367Z,15.50
2017-10-24T23:13:29.718Z,15.50
2017-10-24T23:15:56.116Z,15.40
2017-10-24T23:18:23.250Z,15.60
2017-10-24T23:20:49.617Z,15.50
2017-10-24T23:23:15.981Z,15.60
2017-10-24T23:25:42.334Z,15.60
2017-10-24T23:28:08.680Z,15.60
2017-10-24T23:30:35.004Z,15.70
2017-10-24T23:33:01.385Z,15.70
2017-10-24T23:35:27.740Z,15.60
2017-10-24T23:37:54.833Z,15.70
2017-10-24T23:40:21.201Z,15.60
2017-10-24T23:42:47.552Z,15.60
2017-10-24T23:45:15.368Z,15.50
2017-10-24T23:47:41.726Z,15.50
2017-10-24T23:50:08.077Z,15.50
2017-10-24T23:52:34.487Z,15.50
2017-10-24T23:55:01.552Z,15.60
2017-10-24T23:57:27.907Z,15.60
2017-10-24T23:59:54.280Z,15.60
